createdAt,value
2022-12-04T00:01:12.249Z,33.55
2022-12-04T00:03:39.131Z,27.30
2022-12-04T00:06:12.264Z,32.08
2022-12-04T00:08:39.656Z,27.95
2022-12-04T00:11:07.851Z,26.75
2022-12-04T00:13:35.353Z,35.40
2022-12-04T00:16:05.024Z,24.42
2022-12-04T00:18:31.713Z,36.47
2022-12-04T00:20:58.753Z,35.22
2022-12-04T00:23:25.849Z,31.08
2022-12-04T00:25:53.374Z,34.78
2022-12-04T00:28:20.693Z,32.10
2022-12-04T00:30:47.233Z,36.65
2022-12-04T00:33:13.907Z,32.47
2022-12-04T00:35:40.918Z,34.65
2022-12-04T00:38:07.621Z,29.30
2022-12-04T00:40:34.882Z,28.15
2022-12-04T00:43:02.098Z,29.55
2022-12-04T00:45:31.239Z,28.25
2022-12-04T00:47:58.525Z,22.15
2022-12-04T00:50:25.147Z,33.33
2022-12-04T00:52:52.189Z,34.63
2022-12-04T00:55:19.596Z,29.20
2022-12-04T00:57:47.159Z,33.72
2022-12-04T01:00:14.078Z,24.83
2022-12-04T01:02:41.465Z,32.00
2022-12-04T01:05:08.752Z,27.30
2022-12-04T01:07:35.553Z,29.23
2022-12-04T01:10:02.256Z,32.55
2022-12-04T01:12:29.344Z,29.02
2022-12-04T01:14:56.535Z,33.50
2022-12-04T01:17:23.608Z,30.45
2022-12-04T01:19:50.712Z,38.08
2022-12-04T01:22:17.254Z,29.92
2022-12-04T01:24:44.333Z,33.28
2022-12-04T01:27:10.905Z,28.08
2022-12-04T01:29:37.843Z,34.30
2022-12-04T01:32:04.833Z,31.88
2022-12-04T01:34:32.014Z,29.23
2022-12-04T01:36:59.224Z,36.33
2022-12-04T01:39:25.782Z,42.58
2022-12-04T01:41:52.690Z,40.08
2022-12-04T01:44:24.058Z,33.33
2022-12-04T01:46:54.977Z,28.90
2022-12-04T01:49:26.494Z,31.13
2022-12-04T01:51:59.031Z,31.05
2022-12-04T01:54:30.483Z,33.13
2022-12-04T01:57:06.238Z,29.38
2022-12-04T01:59:58.488Z,31.63
2022-12-04T02:02:30.158Z,24.85
2022-12-04T02:04:56.799Z,32.67
2022-12-04T02:07:24.132Z,31.20
2022-12-04T02:09:56.019Z,34.95
2022-12-04T02:12:33.611Z,32.97
2022-12-04T02:15:24.942Z,42.42
2022-12-04T02:18:07.219Z,29.48
2022-12-04T02:20:40.900Z,27.85
2022-12-04T02:23:20.140Z,44.92
2022-12-04T02:26:05.146Z,36.22
2022-12-04T02:28:46.812Z,31.23
2022-12-04T02:31:18.441Z,27.90
2022-12-04T02:34:09.996Z,35.63
2022-12-04T02:36:43.045Z,28.10
2022-12-04T02:39:24.981Z,27.90
2022-12-04T02:41:59.678Z,32.35
2022-12-04T02:44:33.302Z,31.15
2022-12-04T02:47:07.854Z,33.92
2022-12-04T02:49:40.872Z,35.53
2022-12-04T02:52:11.965Z,28.88
2022-12-04T02:54:48.308Z,24.75
2022-12-04T02:57:21.835Z,34.03
2022-12-04T02:59:50.674Z,44.38
2022-12-04T03:02:25.497Z,14.63
2022-12-04T03:04:56.216Z,26.73
2022-12-04T03:07:31.786Z,27.48
2022-12-04T03:10:08.936Z,30.05
2022-12-04T03:12:56.368Z,24.08
2022-12-04T03:15:41.518Z,30.73
2022-12-04T03:18:17.572Z,33.42
2022-12-04T03:20:48.945Z,30.73
2022-12-04T03:23:27.189Z,36.13
2022-12-04T03:26:08.344Z,32.83
2022-12-04T03:28:53.066Z,27.77
2022-12-04T03:31:26.663Z,27.88
2022-12-04T03:34:02.993Z,30.35
2022-12-04T03:36:36.241Z,24.60
2022-12-04T03:39:13.231Z,25.58
2022-12-04T03:41:54.998Z,22.98
2022-12-04T03:44:34.055Z,32.35
2022-12-04T03:47:07.726Z,18.45
2022-12-04T03:49:51.585Z,24.80
2022-12-04T03:52:28.166Z,30.50
2022-12-04T03:55:03.179Z,39.08
2022-12-04T03:57:34.782Z,39.83
2022-12-04T04:00:16.861Z,35.05
2022-12-04T04:02:52.423Z,30.83
2022-12-04T04:05:20.429Z,36.92
2022-12-04T04:07:51.971Z,21.60
2022-12-04T04:10:26.552Z,39.03
2022-12-04T04:13:22.311Z,40.45
2022-12-04T04:16:12.111Z,32.35
2022-12-04T04:19:00.985Z,21.48
2022-12-04T04:21:50.953Z,30.23
2022-12-04T04:24:37.226Z,30.55
2022-12-04T04:27:04.945Z,38.40
2022-12-04T04:29:34.228Z,34.33
2022-12-04T04:32:33.309Z,32.20
2022-12-04T04:35:17.502Z,36.25
2022-12-04T04:37:56.558Z,32.42
2022-12-04T04:40:33.891Z,26.30
2022-12-04T04:43:13.055Z,33.75
2022-12-04T04:45:48.677Z,26.95
2022-12-04T04:48:22.233Z,27.08
2022-12-04T04:50:49.652Z,22.85
2022-12-04T04:53:21.491Z,34.47
2022-12-04T04:55:52.054Z,35.05
2022-12-04T04:58:21.180Z,36.00
2022-12-04T05:01:20.256Z,35.58
2022-12-04T05:03:49.206Z,32.80
2022-12-04T05:06:18.265Z,39.15
2022-12-04T05:08:48.241Z,22.30
2022-12-04T05:11:16.927Z,34.75
2022-12-04T05:13:48.718Z,30.90
2022-12-04T05:16:16.294Z,39.65
2022-12-04T05:19:06.145Z,31.73
2022-12-04T05:21:33.490Z,36.35
2022-12-04T05:24:00.120Z,39.58
2022-12-04T05:26:26.685Z,41.83
2022-12-04T05:28:53.357Z,42.08
2022-12-04T05:31:19.895Z,36.30
2022-12-04T05:33:46.434Z,34.70
2022-12-04T05:36:13.509Z,31.80
2022-12-04T05:38:42.797Z,22.90
2022-12-04T05:41:09.728Z,30.33
2022-12-04T05:43:36.455Z,27.55
2022-12-04T05:46:08.214Z,31.58
2022-12-04T05:48:37.371Z,32.20
2022-12-04T05:51:08.381Z,37.30
2022-12-04T05:53:35.521Z,33.88
2022-12-04T05:56:03.630Z,34.70
2022-12-04T05:58:31.289Z,34.70
2022-12-04T06:00:58.219Z,35.38
2022-12-04T06:03:25.205Z,29.48
2022-12-04T06:05:52.190Z,32.65
2022-12-04T06:08:18.829Z,23.83
2022-12-04T06:10:46.455Z,33.55
2022-12-04T06:13:15.568Z,15.97
2022-12-04T06:15:42.646Z,27.60
2022-12-04T06:18:09.791Z,31.08
2022-12-04T06:20:37.841Z,24.83
2022-12-04T06:23:04.431Z,32.53
2022-12-04T06:25:31.597Z,30.13
2022-12-04T06:27:58.760Z,31.08
2022-12-04T06:30:28.471Z,32.47
2022-12-04T06:32:55.314Z,27.70
2022-12-04T06:35:23.694Z,26.98
2022-12-04T06:37:50.873Z,30.85
2022-12-04T06:40:19.439Z,32.28
2022-12-04T06:42:45.982Z,36.35
2022-12-04T06:45:13.190Z,32.28
2022-12-04T06:47:40.537Z,34.42
2022-12-04T06:50:07.792Z,36.80
2022-12-04T06:52:34.728Z,23.13
2022-12-04T06:55:01.777Z,15.95
2022-12-04T06:57:30.889Z,32.85
2022-12-04T06:59:58.321Z,31.77
2022-12-04T07:02:25.815Z,28.13
2022-12-04T07:04:56.377Z,31.42
2022-12-04T07:07:28.702Z,33.90
2022-12-04T07:09:55.542Z,35.67
2022-12-04T07:12:22.585Z,26.98
2022-12-04T07:14:49.588Z,37.97
2022-12-04T07:17:16.498Z,28.05
2022-12-04T07:19:42.983Z,29.30
2022-12-04T07:22:09.920Z,16.05
2022-12-04T07:24:37.872Z,34.03
2022-12-04T07:27:05.576Z,31.23
2022-12-04T07:29:32.309Z,33.60
2022-12-04T07:31:58.906Z,24.75
2022-12-04T07:34:29.138Z,32.20
2022-12-04T07:36:55.782Z,23.77
2022-12-04T07:39:23.041Z,34.15
2022-12-04T07:41:57.944Z,31.92
2022-12-04T07:44:24.633Z,24.50
2022-12-04T07:46:51.207Z,29.02
2022-12-04T07:49:20.641Z,33.17
2022-12-04T07:51:47.273Z,32.83
2022-12-04T07:54:14.732Z,36.95
2022-12-04T07:56:43.867Z,21.08
2022-12-04T07:59:10.345Z,38.03
2022-12-04T08:01:37.708Z,29.13
2022-12-04T08:04:05.247Z,35.03
2022-12-04T08:06:34.592Z,33.90
2022-12-04T08:09:06.295Z,31.73
2022-12-04T08:11:36.365Z,28.35
2022-12-04T08:14:05.616Z,33.08
2022-12-04T08:16:33.385Z,33.03
2022-12-04T08:19:01.212Z,40.95
2022-12-04T08:21:30.236Z,28.80
2022-12-04T08:23:58.126Z,32.90
2022-12-04T08:26:27.073Z,23.45
2022-12-04T08:28:55.139Z,33.22
2022-12-04T08:31:24.804Z,35.13
2022-12-04T08:33:53.876Z,25.23
2022-12-04T08:36:21.827Z,34.58
2022-12-04T08:38:49.800Z,35.88
2022-12-04T08:41:21.247Z,26.70
2022-12-04T08:43:51.079Z,33.97
2022-12-04T08:46:18.982Z,29.48
2022-12-04T08:48:46.179Z,33.58
2022-12-04T08:51:15.855Z,39.63
2022-12-04T08:53:42.701Z,48.13
2022-12-04T08:56:09.679Z,27.85
2022-12-04T08:58:37.005Z,38.20
2022-12-04T09:01:11.891Z,30.40
2022-12-04T09:03:39.559Z,20.27
2022-12-04T09:06:07.096Z,36.60
2022-12-04T09:08:34.752Z,28.30
2022-12-04T09:11:11.003Z,29.03
2022-12-04T09:13:38.452Z,26.25
2022-12-04T09:16:11.271Z,28.55
2022-12-04T09:18:39.080Z,27.45
2022-12-04T09:21:08.487Z,28.75
2022-12-04T09:23:37.816Z,35.20
2022-12-04T09:26:06.742Z,35.13
2022-12-04T09:28:33.454Z,29.50
2022-12-04T09:31:05.109Z,33.30
2022-12-04T09:33:33.007Z,33.97
2022-12-04T09:36:06.890Z,28.83
2022-12-04T09:38:37.597Z,29.10
2022-12-04T09:41:25.406Z,27.05
2022-12-04T09:44:02.170Z,37.13
2022-12-04T09:46:37.417Z,24.05
2022-12-04T09:49:23.950Z,28.42
2022-12-04T09:51:52.434Z,28.75
2022-12-04T09:56:54.811Z,33.33
2022-12-04T09:59:25.614Z,23.38
2022-12-04T10:02:12.635Z,23.40
2022-12-04T10:04:39.658Z,25.58
2022-12-04T10:07:48.049Z,30.98
2022-12-04T10:10:30.177Z,28.13
2022-12-04T10:13:03.585Z,14.55
2022-12-04T10:15:36.602Z,16.63
2022-12-04T10:18:46.348Z,20.92
2022-12-04T10:21:43.661Z,20.30
2022-12-04T10:24:41.972Z,16.97
2022-12-04T10:27:30.804Z,27.38
2022-12-04T10:30:02.883Z,22.25
2022-12-04T10:32:34.695Z,20.42
2022-12-04T10:35:26.958Z,16.42
2022-12-04T10:38:23.577Z,19.52
2022-12-04T10:41:03.309Z,15.95
2022-12-04T10:43:29.758Z,18.88
2022-12-04T10:45:57.198Z,22.85
2022-12-04T10:48:35.740Z,15.57
2022-12-04T10:51:03.289Z,15.18
2022-12-04T10:53:34.840Z,21.03
2022-12-04T10:56:20.089Z,18.10
2022-12-04T10:59:06.103Z,13.20
2022-12-04T11:01:35.704Z,18.42
2022-12-04T11:04:10.115Z,15.18
2022-12-04T11:06:38.124Z,11.75
2022-12-04T11:09:05.058Z,17.45
2022-12-04T11:11:34.135Z,17.92
2022-12-04T11:14:22.763Z,13.52
2022-12-04T11:17:00.536Z,20.35
2022-12-04T11:19:32.601Z,17.48
2022-12-04T11:22:09.003Z,15.68
2022-12-04T11:24:39.531Z,16.30
2022-12-04T11:27:08.219Z,12.73
2022-12-04T11:29:43.418Z,13.93
2022-12-04T11:32:22.315Z,17.05
2022-12-04T11:34:52.241Z,15.75
2022-12-04T11:37:24.912Z,16.42
2022-12-04T11:39:53.757Z,16.25
2022-12-04T11:42:25.376Z,13.23
2022-12-04T11:45:04.180Z,11.50
2022-12-04T11:47:33.848Z,15.27
2022-12-04T11:50:11.411Z,18.70
2022-12-04T11:53:14.465Z,18.42
2022-12-04T11:55:50.184Z,18.98
2022-12-04T11:58:36.418Z,12.68
2022-12-04T12:01:38.320Z,5.72
2022-12-04T12:04:48.239Z,9.63
2022-12-04T12:07:23.823Z,13.80
2022-12-04T12:10:32.590Z,13.13
2022-12-04T12:13:23.565Z,5.07
2022-12-04T12:16:27.749Z,14.50
2022-12-04T12:19:35.381Z,6.47
2022-12-04T12:22:06.828Z,14.82
2022-12-04T12:24:51.308Z,12.02
2022-12-04T12:27:46.288Z,12.80
2022-12-04T12:30:18.245Z,8.40
2022-12-04T12:33:06.028Z,9.23
2022-12-04T12:35:47.986Z,11.15
2022-12-04T12:38:22.013Z,11.85
2022-12-04T12:41:00.104Z,18.92
2022-12-04T12:43:33.325Z,24.33
2022-12-04T12:46:06.721Z,11.82
2022-12-04T12:49:00.052Z,11.07
2022-12-04T12:51:30.752Z,12.40
2022-12-04T12:54:09.739Z,17.60
2022-12-04T12:56:47.794Z,7.13
2022-12-04T12:59:20.360Z,8.98
2022-12-04T13:02:12.333Z,11.63
2022-12-04T13:04:42.590Z,9.90
2022-12-04T13:07:42.615Z,16.20
2022-12-04T13:10:25.201Z,13.93
2022-12-04T13:13:08.899Z,10.35
2022-12-04T13:16:01.709Z,9.93
2022-12-04T13:18:34.591Z,11.63
2022-12-04T13:21:06.634Z,12.93
2022-12-04T13:23:39.078Z,16.38
2022-12-04T13:26:38.251Z,8.35
2022-12-04T13:29:20.112Z,12.82
2022-12-04T13:31:53.709Z,18.63
2022-12-04T13:34:42.825Z,10.57
2022-12-04T13:37:33.703Z,15.20
2022-12-04T13:40:18.634Z,14.30
2022-12-04T13:42:45.251Z,19.17
2022-12-04T13:45:29.944Z,16.23
2022-12-04T13:48:03.773Z,18.75
2022-12-04T13:50:36.710Z,11.63
2022-12-04T13:53:04.006Z,15.45
2022-12-04T13:55:37.006Z,17.40
2022-12-04T13:58:26.383Z,27.35
2022-12-04T14:01:19.238Z,37.72
2022-12-04T14:03:55.198Z,22.88
2022-12-04T14:06:34.043Z,17.88
2022-12-04T14:09:06.764Z,17.13
2022-12-04T14:11:46.660Z,21.85
2022-12-04T14:14:38.989Z,21.85
2022-12-04T14:17:14.864Z,18.45
2022-12-04T14:19:51.657Z,20.70
2022-12-04T14:22:47.028Z,18.98
2022-12-04T14:25:13.739Z,8.35
2022-12-04T14:27:52.081Z,14.82
2022-12-04T14:33:26.794Z,15.60
2022-12-04T14:36:02.768Z,23.85
2022-12-04T14:38:33.120Z,19.92
2022-12-04T14:41:01.723Z,31.70
2022-12-04T14:43:34.657Z,23.08
2022-12-04T14:46:07.465Z,23.95
2022-12-04T14:48:52.938Z,26.73
2022-12-04T14:51:30.687Z,18.67
2022-12-04T14:54:23.544Z,28.55
2022-12-04T14:57:02.270Z,22.77
2022-12-04T14:59:40.834Z,23.08
2022-12-04T15:02:35.860Z,24.80
2022-12-04T15:05:03.539Z,29.55
2022-12-04T15:07:32.414Z,19.23
2022-12-04T15:10:20.334Z,24.30
2022-12-04T15:12:55.973Z,37.50
2022-12-04T15:15:27.624Z,28.80
2022-12-04T15:18:09.645Z,28.88
2022-12-04T15:20:48.293Z,26.60
2022-12-04T15:23:18.804Z,31.40
2022-12-04T15:25:57.685Z,33.45
2022-12-04T15:28:31.708Z,26.35
2022-12-04T15:31:02.802Z,25.95
2022-12-04T15:33:36.333Z,27.42
2022-12-04T15:36:10.078Z,29.40
2022-12-04T15:38:37.042Z,23.45
2022-12-04T15:41:04.423Z,17.58
2022-12-04T15:43:32.777Z,30.08
2022-12-04T15:45:59.807Z,23.35
2022-12-04T15:48:31.189Z,21.77
2022-12-04T15:51:08.976Z,25.70
2022-12-04T15:53:38.737Z,22.92
2022-12-04T15:56:16.335Z,23.27
2022-12-04T15:58:54.742Z,25.38
2022-12-04T16:01:22.051Z,21.65
2022-12-04T16:03:54.358Z,25.83
2022-12-04T16:06:27.734Z,19.48
2022-12-04T16:09:00.539Z,25.20
2022-12-04T16:11:38.879Z,24.80
2022-12-04T16:16:46.566Z,20.67
2022-12-04T16:19:23.781Z,19.45
2022-12-04T16:21:51.415Z,20.88
2022-12-04T16:24:18.529Z,23.00
2022-12-04T16:26:45.049Z,18.73
2022-12-04T16:29:11.978Z,27.35
2022-12-04T16:31:38.847Z,21.60
2022-12-04T16:34:05.928Z,29.05
2022-12-04T16:36:32.493Z,18.67
2022-12-04T16:38:59.153Z,24.85
2022-12-04T16:41:25.854Z,23.85
2022-12-04T16:43:57.533Z,27.60
2022-12-04T16:46:26.067Z,28.88
2022-12-04T16:48:53.081Z,32.92
2022-12-04T16:51:25.301Z,24.45
2022-12-04T16:53:52.876Z,21.13
2022-12-04T16:56:20.376Z,21.67
2022-12-04T16:58:47.356Z,24.73
2022-12-04T17:01:33.970Z,22.52
2022-12-04T17:04:00.832Z,21.40
2022-12-04T17:06:27.581Z,22.92
2022-12-04T17:08:54.505Z,22.90
2022-12-04T17:11:21.835Z,25.08
2022-12-04T17:13:48.763Z,25.27
2022-12-04T17:16:19.591Z,42.25
2022-12-04T17:18:46.629Z,51.88
2022-12-04T17:21:17.211Z,26.52
2022-12-04T17:23:44.115Z,22.98
2022-12-04T17:26:13.486Z,27.13
2022-12-04T17:28:40.868Z,27.88
2022-12-04T17:31:20.633Z,24.60
2022-12-04T17:33:47.787Z,22.38
2022-12-04T17:36:17.722Z,22.35
2022-12-04T17:38:45.274Z,13.93
2022-12-04T17:41:16.776Z,23.92
2022-12-04T17:43:43.911Z,20.23
2022-12-04T17:46:21.565Z,19.60
2022-12-04T17:48:48.913Z,21.42
2022-12-04T17:51:21.032Z,21.00
2022-12-04T17:53:48.405Z,19.92
2022-12-04T17:56:21.570Z,19.95
2022-12-04T17:58:51.653Z,20.55
2022-12-04T18:01:21.745Z,17.95
2022-12-04T18:03:53.210Z,22.45
2022-12-04T18:06:24.440Z,22.45
2022-12-04T18:08:52.188Z,16.45
2022-12-04T18:11:21.088Z,17.92
2022-12-04T18:13:59.482Z,22.23
2022-12-04T18:18:54.426Z,17.60
2022-12-04T18:21:21.040Z,36.10
2022-12-04T18:23:47.764Z,31.63
2022-12-04T18:26:19.533Z,25.15
2022-12-04T18:28:47.282Z,23.15
2022-12-04T18:31:15.897Z,29.23
2022-12-04T18:33:43.507Z,9.95
2022-12-04T18:36:16.505Z,24.50
2022-12-04T18:38:44.900Z,31.42
2022-12-04T18:41:14.326Z,28.17
2022-12-04T18:43:45.747Z,23.17
2022-12-04T18:46:15.962Z,27.73
2022-12-04T18:48:44.742Z,27.23
2022-12-04T18:51:17.902Z,30.52
2022-12-04T18:53:44.616Z,23.70
2022-12-04T18:56:11.164Z,26.90
2022-12-04T18:58:37.926Z,30.73
2022-12-04T19:01:09.270Z,21.40
2022-12-04T19:03:36.407Z,28.13
2022-12-04T19:06:03.995Z,27.75
2022-12-04T19:08:33.726Z,29.43
2022-12-04T19:11:11.692Z,25.02
2022-12-04T19:13:38.438Z,22.80
2022-12-04T19:16:10.502Z,39.92
2022-12-04T19:18:37.464Z,33.45
2022-12-04T19:21:08.307Z,21.73
2022-12-04T19:23:35.445Z,30.27
2022-12-04T19:26:02.163Z,24.13
2022-12-04T19:28:29.106Z,21.23
2022-12-04T19:30:56.026Z,25.83
2022-12-04T19:33:23.921Z,25.73
2022-12-04T19:36:05.163Z,26.02
2022-12-04T19:38:33.541Z,26.58
2022-12-04T19:41:11.550Z,23.58
2022-12-04T19:43:40.293Z,26.75
2022-12-04T19:46:08.616Z,11.00
2022-12-04T19:48:38.159Z,22.10
2022-12-04T19:51:13.480Z,29.38
2022-12-04T19:53:41.340Z,25.42
2022-12-04T19:56:14.410Z,28.67
2022-12-04T19:58:41.292Z,21.58
2022-12-04T20:01:11.459Z,36.00
2022-12-04T20:03:38.677Z,24.58
2022-12-04T20:06:08.163Z,26.92
2022-12-04T20:08:35.383Z,23.88
2022-12-04T20:11:07.742Z,27.33
2022-12-04T20:13:40.719Z,20.52
2022-12-04T20:16:10.353Z,26.00
2022-12-04T20:18:39.644Z,21.95
2022-12-04T20:21:11.079Z,13.00
2022-12-04T20:23:50.194Z,27.63
2022-12-04T20:26:23.764Z,28.05
2022-12-04T20:28:50.880Z,28.23
2022-12-04T20:31:22.542Z,29.85
2022-12-04T20:33:52.843Z,26.23
2022-12-04T20:36:23.681Z,31.80
2022-12-04T20:38:56.069Z,33.17
2022-12-04T20:41:22.833Z,27.35
2022-12-04T20:43:49.473Z,52.72
2022-12-04T20:46:20.524Z,33.63
2022-12-04T20:48:48.888Z,28.42
2022-12-04T20:51:18.609Z,31.52
2022-12-04T20:53:47.273Z,27.65
2022-12-04T20:56:15.373Z,28.17
2022-12-04T20:58:42.016Z,24.92
2022-12-04T21:01:15.763Z,28.17
2022-12-04T21:03:43.272Z,30.77
2022-12-04T21:06:15.441Z,31.98
2022-12-04T21:08:59.657Z,32.28
2022-12-04T21:11:29.169Z,26.58
2022-12-04T21:14:15.749Z,29.60
2022-12-04T21:16:43.608Z,23.90
2022-12-04T21:19:12.379Z,25.60
2022-12-04T21:21:39.526Z,31.00
2022-12-04T21:24:08.370Z,32.85
2022-12-04T21:26:35.829Z,30.15
2022-12-04T21:29:04.073Z,26.10
2022-12-04T21:31:31.952Z,23.90
2022-12-04T21:34:00.135Z,26.77
2022-12-04T21:36:28.034Z,18.38
2022-12-04T21:38:57.743Z,30.77
2022-12-04T21:41:43.767Z,31.65
2022-12-04T21:44:18.325Z,20.75
2022-12-04T21:46:46.521Z,26.95
2022-12-04T21:49:14.170Z,29.02
2022-12-04T21:51:59.477Z,28.40
2022-12-04T21:54:27.740Z,26.00
2022-12-04T21:56:54.934Z,33.38
2022-12-04T21:59:21.944Z,35.17
2022-12-04T22:01:48.657Z,28.75
2022-12-04T22:04:15.704Z,33.40
2022-12-04T22:06:43.002Z,28.08
2022-12-04T22:09:12.598Z,29.35
2022-12-04T22:12:00.950Z,26.38
2022-12-04T22:14:28.749Z,29.25
2022-12-04T22:16:56.018Z,25.17
2022-12-04T22:19:25.083Z,26.42
2022-12-04T22:21:51.985Z,25.90
2022-12-04T22:24:20.813Z,22.70
2022-12-04T22:26:47.805Z,15.35
2022-12-04T22:29:48.745Z,31.48
2022-12-04T22:32:01.249Z,23.23
2022-12-04T22:34:27.813Z,22.55
2022-12-04T22:36:54.295Z,23.08
2022-12-04T22:39:21.178Z,20.63
2022-12-04T22:41:47.730Z,25.77
2022-12-04T22:44:18.625Z,26.05
2022-12-04T22:46:45.650Z,32.55
2022-12-04T22:49:12.455Z,34.58
2022-12-04T22:51:41.630Z,28.80
2022-12-04T22:54:13.311Z,29.60
2022-12-04T22:56:40.426Z,22.05
2022-12-04T22:59:08.330Z,24.75
2022-12-04T23:01:35.049Z,16.30
2022-12-04T23:04:03.153Z,20.98
2022-12-04T23:06:31.882Z,24.88
2022-12-04T23:09:02.276Z,23.52
2022-12-04T23:11:29.450Z,25.63
2022-12-04T23:14:01.656Z,26.40
2022-12-04T23:16:32.290Z,26.75
2022-12-04T23:18:59.283Z,12.82
2022-12-04T23:21:26.840Z,30.35
2022-12-04T23:23:54.904Z,23.03
2022-12-04T23:26:24.820Z,23.65
2022-12-04T23:28:52.311Z,27.48
2022-12-04T23:31:19.527Z,29.02
2022-12-04T23:33:46.092Z,23.92
2022-12-04T23:36:14.156Z,32.88
2022-12-04T23:38:42.549Z,22.23
2022-12-04T23:43:41.834Z,21.52
2022-12-04T23:46:13.987Z,23.27
2022-12-04T23:48:43.396Z,22.23
2022-12-04T23:51:11.908Z,23.42
2022-12-04T23:56:07.691Z,22.13
2022-12-04T23:58:35.277Z,24.30
